createdAt,value
2018-05-12T00:02:03.260Z,17.20
2018-05-12T00:04:30.740Z,29.00
2018-05-12T00:06:58.224Z,15.70
2018-05-12T00:09:25.711Z,15.83
2018-05-12T00:11:53.176Z,15.53
2018-05-12T00:14:20.639Z,75.40
2018-05-12T00:16:48.121Z,17.20
2018-05-12T00:19:15.995Z,18.30
2018-05-12T00:21:43.488Z,21.03
2018-05-12T00:24:10.946Z,23.27
2018-05-12T00:26:38.431Z,16.77
2018-05-12T00:29:05.902Z,15.23
2018-05-12T00:31:33.387Z,18.12
2018-05-12T00:34:00.884Z,16.65
2018-05-12T00:36:28.360Z,19.23
2018-05-12T00:38:55.844Z,18.67
2018-05-12T00:41:23.491Z,16.27
2018-05-12T00:43:50.991Z,18.25
2018-05-12T00:46:18.460Z,20.50
2018-05-12T00:48:45.932Z,17.47
2018-05-12T00:51:13.415Z,19.47
2018-05-12T00:53:40.881Z,21.70
2018-05-12T00:56:08.408Z,26.57
2018-05-12T00:58:35.882Z,20.00
2018-05-12T01:01:03.365Z,18.47
2018-05-12T01:03:30.856Z,19.53
2018-05-12T01:05:58.319Z,27.70
2018-05-12T01:08:25.813Z,22.77
2018-05-12T01:10:53.284Z,24.30
2018-05-12T01:13:20.751Z,21.85
2018-05-12T01:15:48.245Z,20.60
2018-05-12T01:18:15.726Z,19.60
2018-05-12T01:20:43.247Z,19.37
2018-05-12T01:23:10.726Z,35.90
2018-05-12T01:25:38.208Z,189.90
2018-05-12T01:28:05.700Z,182.60
2018-05-12T01:30:33.167Z,33.08
2018-05-12T01:33:00.668Z,26.67
2018-05-12T01:35:28.149Z,25.53
2018-05-12T01:37:55.617Z,22.50
2018-05-12T01:40:23.107Z,23.60
2018-05-12T01:42:50.588Z,26.17
2018-05-12T01:45:18.072Z,21.23
2018-05-12T01:47:45.613Z,23.10
2018-05-12T01:50:13.081Z,20.90
2018-05-12T01:52:40.572Z,22.50
2018-05-12T01:55:08.031Z,21.57
2018-05-12T01:57:35.526Z,24.77
2018-05-12T02:00:02.995Z,28.87
2018-05-12T02:02:30.495Z,23.13
2018-05-12T02:04:57.996Z,21.10
2018-05-12T02:07:25.473Z,24.23
2018-05-12T02:09:52.961Z,25.67
2018-05-12T02:12:20.435Z,23.53
2018-05-12T02:14:47.906Z,28.42
2018-05-12T02:17:15.400Z,23.80
2018-05-12T02:19:42.889Z,28.25
2018-05-12T02:22:10.379Z,21.73
2018-05-12T02:24:37.843Z,22.57
2018-05-12T02:27:05.338Z,25.27
2018-05-12T02:29:32.904Z,24.13
2018-05-12T02:32:00.376Z,24.80
2018-05-12T02:34:27.905Z,26.93
2018-05-12T02:36:55.360Z,23.80
2018-05-12T02:39:22.959Z,32.23
2018-05-12T02:41:50.367Z,27.20
2018-05-12T02:44:17.887Z,31.53
2018-05-12T02:46:45.359Z,27.35
2018-05-12T02:49:12.828Z,25.53
2018-05-12T02:51:40.315Z,26.55
2018-05-12T02:54:07.789Z,27.37
2018-05-12T02:56:35.701Z,26.73
2018-05-12T02:59:03.172Z,24.73
2018-05-12T03:01:30.682Z,21.00
2018-05-12T03:03:58.152Z,22.90
2018-05-12T03:06:25.624Z,25.50
2018-05-12T03:08:53.132Z,26.25
2018-05-12T03:11:20.600Z,29.40
2018-05-12T03:13:48.112Z,26.60
2018-05-12T03:16:15.580Z,30.03
2018-05-12T03:18:43.048Z,28.45
2018-05-12T03:21:10.531Z,27.20
2018-05-12T03:23:37.999Z,23.37
2018-05-12T03:26:05.509Z,23.73
2018-05-12T03:28:32.984Z,29.95
2018-05-12T03:31:00.465Z,25.55
2018-05-12T03:33:27.965Z,37.87
2018-05-12T03:35:55.439Z,27.43
2018-05-12T03:38:23.075Z,25.50
2018-05-12T03:40:50.557Z,27.73
2018-05-12T03:43:18.019Z,24.37
2018-05-12T03:45:45.500Z,26.20
2018-05-12T03:48:12.979Z,26.03
2018-05-12T03:50:40.463Z,26.03
2018-05-12T03:53:07.946Z,28.10
2018-05-12T03:55:35.404Z,28.60
2018-05-12T03:58:02.901Z,26.48
2018-05-12T04:00:30.379Z,27.27
2018-05-12T04:02:57.866Z,27.40
2018-05-12T04:05:37.022Z,24.80
2018-05-12T04:08:16.257Z,29.63
2018-05-12T04:13:38.178Z,26.50
2018-05-12T04:16:05.647Z,35.93
2018-05-12T04:18:33.120Z,28.20
2018-05-12T04:21:00.624Z,25.23
2018-05-12T04:23:28.096Z,25.30
2018-05-12T04:25:55.580Z,23.97
2018-05-12T04:28:23.040Z,26.50
2018-05-12T04:30:50.531Z,25.63
2018-05-12T04:33:18.002Z,26.03
2018-05-12T04:35:45.468Z,33.27
2018-05-12T04:38:12.955Z,46.33
2018-05-12T04:40:40.426Z,42.23
2018-05-12T04:43:07.908Z,31.30
2018-05-12T04:45:35.376Z,38.47
2018-05-12T04:48:02.863Z,33.72
2018-05-12T04:50:30.330Z,37.87
2018-05-12T04:52:57.920Z,31.90
2018-05-12T04:55:25.417Z,41.17
2018-05-12T04:57:52.877Z,31.67
2018-05-12T05:00:20.376Z,30.30
2018-05-12T05:02:47.847Z,36.80
2018-05-12T05:05:15.319Z,33.03
2018-05-12T05:07:42.807Z,32.37
2018-05-12T05:10:10.281Z,32.90
2018-05-12T05:12:37.762Z,32.10
2018-05-12T05:15:05.232Z,29.52
2018-05-12T05:17:32.704Z,32.90
2018-05-12T05:20:00.187Z,29.80
2018-05-12T05:22:27.651Z,27.57
2018-05-12T05:24:55.373Z,28.27
2018-05-12T05:27:22.845Z,32.27
2018-05-12T05:29:50.308Z,27.93
2018-05-12T05:32:17.794Z,26.63
2018-05-12T05:34:45.257Z,26.07
2018-05-12T05:37:12.746Z,29.27
2018-05-12T05:39:40.211Z,28.93
2018-05-12T05:42:07.680Z,29.47
2018-05-12T05:44:35.157Z,42.60
2018-05-12T05:47:02.620Z,27.87
2018-05-12T05:49:30.114Z,23.90
2018-05-12T05:51:57.569Z,28.08
2018-05-12T05:54:25.038Z,25.60
2018-05-12T05:56:52.523Z,29.70
2018-05-12T05:59:19.980Z,32.53
2018-05-12T06:01:47.467Z,26.53
2018-05-12T06:04:14.940Z,30.70
2018-05-12T06:06:42.405Z,31.67
2018-05-12T06:09:09.907Z,27.00
2018-05-12T06:11:37.382Z,34.63
2018-05-12T06:14:04.863Z,27.33
2018-05-12T06:16:32.335Z,29.73
2018-05-12T06:19:00.462Z,28.75
2018-05-12T06:21:28.055Z,29.40
2018-05-12T06:23:55.513Z,38.93
2018-05-12T06:26:23.196Z,31.47
2018-05-12T06:28:50.679Z,28.37
2018-05-12T06:31:18.153Z,40.30
2018-05-12T06:33:45.879Z,31.77
2018-05-12T06:36:13.344Z,34.58
2018-05-12T06:38:40.844Z,29.80
2018-05-12T06:41:08.323Z,30.27
2018-05-12T06:43:35.784Z,44.47
2018-05-12T06:46:03.272Z,36.43
2018-05-12T06:48:30.748Z,28.03
2018-05-12T06:50:58.211Z,29.45
2018-05-12T06:53:25.690Z,32.77
2018-05-12T06:55:53.163Z,28.33
2018-05-12T06:58:20.648Z,26.63
2018-05-12T07:00:48.111Z,30.90
2018-05-12T07:03:15.571Z,32.20
2018-05-12T07:05:43.045Z,31.80
2018-05-12T07:08:10.515Z,31.48
2018-05-12T07:10:37.975Z,34.00
2018-05-12T07:13:05.491Z,30.80
2018-05-12T07:15:32.970Z,37.90
2018-05-12T07:18:00.781Z,32.60
2018-05-12T07:20:28.248Z,35.40
2018-05-12T07:22:55.760Z,32.50
2018-05-12T07:25:23.216Z,29.97
2018-05-12T07:27:50.676Z,30.40
2018-05-12T07:30:18.154Z,28.40
2018-05-12T07:32:45.623Z,33.43
2018-05-12T07:35:13.099Z,31.47
2018-05-12T07:37:40.568Z,30.23
2018-05-12T07:40:08.040Z,27.93
2018-05-12T07:42:35.527Z,34.30
2018-05-12T07:45:02.999Z,30.20
2018-05-12T07:47:30.495Z,29.87
2018-05-12T07:49:57.965Z,32.27
2018-05-12T07:52:25.468Z,35.07
2018-05-12T07:54:52.963Z,33.70
2018-05-12T07:57:20.415Z,25.07
2018-05-12T07:59:47.893Z,31.20
2018-05-12T08:02:15.612Z,34.75
2018-05-12T08:04:43.089Z,25.33
2018-05-12T08:07:10.564Z,23.50
2018-05-12T08:09:38.041Z,28.87
2018-05-12T08:12:05.819Z,27.37
2018-05-12T08:14:33.285Z,23.23
2018-05-12T08:17:00.748Z,27.20
2018-05-12T08:19:28.238Z,24.13
2018-05-12T08:21:56.040Z,33.73
2018-05-12T08:24:23.527Z,26.40
2018-05-12T08:26:51.036Z,24.17
2018-05-12T08:29:18.578Z,34.33
2018-05-12T08:31:46.066Z,26.00
2018-05-12T08:34:13.537Z,24.70
2018-05-12T08:36:41.012Z,27.67
2018-05-12T08:39:08.463Z,26.17
2018-05-12T08:41:35.962Z,29.53
2018-05-12T08:44:03.427Z,28.87
2018-05-12T08:46:30.896Z,28.83
2018-05-12T08:48:58.380Z,30.02
2018-05-12T08:51:25.838Z,26.05
2018-05-12T08:53:53.315Z,27.37
2018-05-12T08:56:20.788Z,23.70
2018-05-12T08:58:48.256Z,25.40
2018-05-12T09:01:15.747Z,46.53
2018-05-12T09:03:43.216Z,33.50
2018-05-12T09:06:10.700Z,26.63
2018-05-12T09:08:38.164Z,27.80
2018-05-12T09:11:05.624Z,27.90
2018-05-12T09:13:33.108Z,25.25
2018-05-12T09:16:00.581Z,40.40
2018-05-12T09:18:28.063Z,28.43
2018-05-12T09:20:55.532Z,29.20
2018-05-12T09:23:22.996Z,22.10
2018-05-12T09:25:50.476Z,24.37
2018-05-12T09:28:17.945Z,20.80
2018-05-12T09:30:45.429Z,22.07
2018-05-12T09:33:12.896Z,19.93
2018-05-12T09:35:40.367Z,18.83
2018-05-12T09:38:07.849Z,20.40
2018-05-12T09:40:35.313Z,20.87
2018-05-12T09:43:02.799Z,20.03
2018-05-12T09:45:30.263Z,17.87
2018-05-12T09:47:57.727Z,15.83
2018-05-12T09:50:25.231Z,18.00
2018-05-12T09:52:52.688Z,16.92
2018-05-12T09:55:20.181Z,17.30
2018-05-12T09:57:47.648Z,22.60
2018-05-12T10:00:16.031Z,41.50
2018-05-12T10:02:43.510Z,10.73
2018-05-12T10:05:10.967Z,11.23
2018-05-12T10:07:38.460Z,9.70
2018-05-12T10:10:05.931Z,10.70
2018-05-12T10:12:33.380Z,8.70
2018-05-12T10:15:00.860Z,9.17
2018-05-12T10:17:28.318Z,8.80
2018-05-12T10:19:55.793Z,10.07
2018-05-12T10:22:23.260Z,10.18
2018-05-12T10:24:51.107Z,10.60
2018-05-12T10:27:18.569Z,12.33
2018-05-12T10:29:46.027Z,17.30
2018-05-12T10:32:13.505Z,13.40
2018-05-12T10:34:40.965Z,10.48
2018-05-12T10:37:08.440Z,9.33
2018-05-12T10:39:35.897Z,9.47
2018-05-12T10:42:03.357Z,6.97
2018-05-12T10:44:30.831Z,8.63
2018-05-12T10:46:58.649Z,6.20
2018-05-12T10:49:26.120Z,6.10
2018-05-12T10:51:53.571Z,6.97
2018-05-12T10:54:21.020Z,5.77
2018-05-12T10:56:48.483Z,7.03
2018-05-12T10:59:15.939Z,7.53
2018-05-12T11:01:43.431Z,8.23
2018-05-12T11:04:10.900Z,6.20
2018-05-12T11:06:39.299Z,6.95
2018-05-12T11:09:06.779Z,7.27
2018-05-12T11:11:34.241Z,6.77
2018-05-12T11:14:01.709Z,6.53
2018-05-12T11:16:29.169Z,6.47
2018-05-12T11:18:57.049Z,5.70
2018-05-12T11:21:24.504Z,5.63
2018-05-12T11:23:51.964Z,6.50
2018-05-12T11:26:19.438Z,6.00
2018-05-12T11:28:46.892Z,8.50
2018-05-12T11:31:14.361Z,6.70
2018-05-12T11:33:41.828Z,8.83
2018-05-12T11:36:09.307Z,5.00
2018-05-12T11:38:36.819Z,4.40
2018-05-12T11:41:04.227Z,4.10
2018-05-12T11:43:31.700Z,6.50
2018-05-12T11:45:59.157Z,6.27
2018-05-12T11:48:26.631Z,4.20
2018-05-12T11:50:54.083Z,4.07
2018-05-12T11:53:21.867Z,4.43
2018-05-12T11:55:49.346Z,3.97
2018-05-12T11:58:17.134Z,3.57
2018-05-12T12:00:44.540Z,4.17
2018-05-12T12:03:11.991Z,4.70
2018-05-12T12:05:39.456Z,4.13
2018-05-12T12:08:06.923Z,4.57
2018-05-12T12:10:34.378Z,3.77
2018-05-12T12:13:01.841Z,3.13
2018-05-12T12:15:29.308Z,3.60
2018-05-12T12:17:56.782Z,3.90
2018-05-12T12:20:24.257Z,4.83
2018-05-12T12:22:51.712Z,4.23
2018-05-12T12:25:19.212Z,3.90
2018-05-12T12:27:46.672Z,4.10
2018-05-12T12:30:14.123Z,5.67
2018-05-12T12:32:41.606Z,3.87
2018-05-12T12:35:09.062Z,3.30
2018-05-12T12:37:36.539Z,3.63
2018-05-12T12:40:04.001Z,4.40
2018-05-12T12:42:31.463Z,3.47
2018-05-12T12:44:58.946Z,4.50
2018-05-12T12:47:26.415Z,4.13
2018-05-12T12:49:53.899Z,3.47
2018-05-12T12:52:21.356Z,5.43
2018-05-12T12:54:48.998Z,19.30
2018-05-12T12:57:16.462Z,4.73
2018-05-12T12:59:43.920Z,6.23
2018-05-12T13:02:11.411Z,5.25
2018-05-12T13:04:38.868Z,6.03
2018-05-12T13:07:06.340Z,5.00
2018-05-12T13:09:33.797Z,5.43
2018-05-12T13:12:01.260Z,5.57
2018-05-12T13:14:28.736Z,9.53
2018-05-12T13:16:56.196Z,5.80
2018-05-12T13:19:23.668Z,6.00
2018-05-12T13:21:51.120Z,6.17
2018-05-12T13:24:18.583Z,7.77
2018-05-12T13:26:46.071Z,5.07
2018-05-12T13:29:13.537Z,7.03
2018-05-12T13:31:41.010Z,5.40
2018-05-12T13:34:08.469Z,5.70
2018-05-12T13:36:35.948Z,5.07
2018-05-12T13:39:03.434Z,6.67
2018-05-12T13:41:30.896Z,5.80
2018-05-12T13:43:58.364Z,7.33
2018-05-12T13:46:25.821Z,5.97
2018-05-12T13:48:53.339Z,14.10
2018-05-12T13:51:20.928Z,5.50
2018-05-12T13:53:48.384Z,5.57
2018-05-12T13:56:16.078Z,5.68
2018-05-12T13:58:43.540Z,7.77
2018-05-12T14:01:11.008Z,17.07
2018-05-12T14:03:38.496Z,6.23
2018-05-12T14:06:05.956Z,4.93
2018-05-12T14:08:33.448Z,8.80
2018-05-12T14:11:00.904Z,6.23
2018-05-12T14:13:28.354Z,4.87
2018-05-12T14:15:55.827Z,7.10
2018-05-12T14:18:23.296Z,4.63
2018-05-12T14:20:50.779Z,4.43
2018-05-12T14:23:18.235Z,4.40
2018-05-12T14:25:45.708Z,4.57
2018-05-12T14:28:13.175Z,4.80
2018-05-12T14:30:40.632Z,4.73
2018-05-12T14:33:08.117Z,6.10
2018-05-12T14:35:35.579Z,3.63
2018-05-12T14:38:03.077Z,4.83
2018-05-12T14:40:30.533Z,4.20
2018-05-12T14:42:58.007Z,4.20
2018-05-12T14:45:25.473Z,4.20
2018-05-12T14:47:52.972Z,4.30
2018-05-12T14:50:20.444Z,4.17
2018-05-12T14:52:47.907Z,4.00
2018-05-12T14:55:15.476Z,5.70
2018-05-12T14:57:43.224Z,5.57
2018-05-12T15:00:10.740Z,5.30
2018-05-12T15:02:38.267Z,7.33
2018-05-12T15:05:05.737Z,5.43
2018-05-12T15:07:33.216Z,5.80
2018-05-12T15:10:00.699Z,5.13
2018-05-12T15:12:28.183Z,5.40
2018-05-12T15:14:55.731Z,5.00
2018-05-12T15:17:23.125Z,5.27
2018-05-12T15:19:50.974Z,5.60
2018-05-12T15:22:18.427Z,5.87
2018-05-12T15:24:45.916Z,6.57
2018-05-12T15:27:13.376Z,6.00
2018-05-12T15:29:40.820Z,8.03
2018-05-12T15:32:08.325Z,20.37
2018-05-12T15:34:35.795Z,6.70
2018-05-12T15:37:03.303Z,7.63
2018-05-12T15:39:30.768Z,8.15
2018-05-12T15:41:58.240Z,6.83
2018-05-12T15:44:25.712Z,6.80
2018-05-12T15:46:53.181Z,6.13
2018-05-12T15:49:20.663Z,7.37
2018-05-12T15:51:48.119Z,7.27
2018-05-12T15:54:15.578Z,7.37
2018-05-12T15:56:43.059Z,6.33
2018-05-12T15:59:10.516Z,6.53
2018-05-12T16:01:38.012Z,6.35
2018-05-12T16:04:05.470Z,6.10
2018-05-12T16:06:32.925Z,9.07
2018-05-12T16:09:00.402Z,5.67
2018-05-12T16:11:27.860Z,9.03
2018-05-12T16:13:55.673Z,8.17
2018-05-12T16:16:23.127Z,6.55
2018-05-12T16:18:50.587Z,5.87
2018-05-12T16:21:18.149Z,8.20
2018-05-12T16:23:45.634Z,6.03
2018-05-12T16:26:13.282Z,8.20
2018-05-12T16:28:40.739Z,11.37
2018-05-12T16:31:08.195Z,8.03
2018-05-12T16:33:35.743Z,6.40
2018-05-12T16:36:03.194Z,8.43
2018-05-12T16:38:30.680Z,9.77
2018-05-12T16:40:58.140Z,5.90
2018-05-12T16:43:25.609Z,6.50
2018-05-12T16:45:53.079Z,5.10
2018-05-12T16:48:20.535Z,5.40
2018-05-12T16:50:48.048Z,6.43
2018-05-12T16:53:15.490Z,8.50
2018-05-12T16:55:42.948Z,6.83
2018-05-12T16:58:10.425Z,7.07
2018-05-12T17:00:37.879Z,6.45
2018-05-12T17:03:05.366Z,6.83
2018-05-12T17:05:32.868Z,6.30
2018-05-12T17:08:00.331Z,8.40
2018-05-12T17:10:27.847Z,7.30
2018-05-12T17:12:55.300Z,8.60
2018-05-12T17:15:22.804Z,10.40
2018-05-12T17:17:50.262Z,9.40
2018-05-12T17:20:17.828Z,8.30
2018-05-12T17:22:45.220Z,7.60
2018-05-12T17:25:12.672Z,7.03
2018-05-12T17:27:40.153Z,8.67
2018-05-12T17:30:07.609Z,7.50
2018-05-12T17:32:35.144Z,6.90
2018-05-12T17:35:02.612Z,8.57
2018-05-12T17:37:30.286Z,7.20
2018-05-12T17:39:57.768Z,8.47
2018-05-12T17:42:25.228Z,6.67
2018-05-12T17:44:52.962Z,8.37
2018-05-12T17:47:20.429Z,9.67
2018-05-12T17:49:47.880Z,8.73
2018-05-12T17:52:15.362Z,8.37
2018-05-12T17:54:42.836Z,9.03
2018-05-12T17:57:10.519Z,8.50
2018-05-12T17:59:38.010Z,8.73
2018-05-12T18:02:05.482Z,8.32
2018-05-12T18:04:33.049Z,10.13
2018-05-12T18:07:00.492Z,8.63
2018-05-12T18:09:27.988Z,8.87
2018-05-12T18:11:55.753Z,9.27
2018-05-12T18:14:23.217Z,11.20
2018-05-12T18:16:50.694Z,7.65
2018-05-12T18:19:18.158Z,7.70
2018-05-12T18:21:45.656Z,14.77
2018-05-12T18:24:13.127Z,26.33
2018-05-12T18:26:40.808Z,8.67
2018-05-12T18:29:08.287Z,9.50
2018-05-12T18:31:36.539Z,10.40
2018-05-12T18:34:04.032Z,10.20
2018-05-12T18:36:31.483Z,9.23
2018-05-12T18:38:58.945Z,7.93
2018-05-12T18:41:26.412Z,9.70
2018-05-12T18:43:53.919Z,9.10
2018-05-12T18:46:22.089Z,9.87
2018-05-12T18:48:49.549Z,11.57
2018-05-12T18:51:17.045Z,10.80
2018-05-12T18:53:44.502Z,8.25
2018-05-12T18:56:11.962Z,10.37
2018-05-12T18:58:39.458Z,9.97
2018-05-12T19:01:06.920Z,15.43
2018-05-12T19:03:34.407Z,9.90
2018-05-12T19:06:01.864Z,9.65
2018-05-12T19:08:29.373Z,12.50
2018-05-12T19:10:56.841Z,13.77
2018-05-12T19:13:24.301Z,10.00
2018-05-12T19:15:51.771Z,15.85
2018-05-12T19:18:19.240Z,13.30
2018-05-12T19:20:46.724Z,10.17
2018-05-12T19:23:14.190Z,11.80
2018-05-12T19:25:41.652Z,10.03
2018-05-12T19:28:09.396Z,10.43
2018-05-12T19:30:36.859Z,9.50
2018-05-12T19:33:04.342Z,13.30
2018-05-12T19:35:31.803Z,9.47
2018-05-12T19:37:59.252Z,9.80
2018-05-12T19:40:26.731Z,9.03
2018-05-12T19:42:54.184Z,9.85
2018-05-12T19:45:21.656Z,8.43
2018-05-12T19:47:49.110Z,19.03
2018-05-12T19:50:16.580Z,8.17
2018-05-12T19:52:44.071Z,9.60
2018-05-12T19:55:11.523Z,9.97
2018-05-12T19:57:39.014Z,13.93
2018-05-12T20:00:06.487Z,12.20
2018-05-12T20:02:33.988Z,20.63
2018-05-12T20:05:01.444Z,15.93
2018-05-12T20:07:28.907Z,16.43
2018-05-12T20:09:56.459Z,11.98
2018-05-12T20:12:23.870Z,19.93
2018-05-12T20:14:51.358Z,14.70
2018-05-12T20:17:18.832Z,12.25
2018-05-12T20:19:46.301Z,20.17
2018-05-12T20:22:13.783Z,14.73
2018-05-12T20:24:41.250Z,13.65
2018-05-12T20:27:08.736Z,14.45
2018-05-12T20:29:36.200Z,19.43
2018-05-12T20:32:03.672Z,14.97
2018-05-12T20:34:31.164Z,12.77
2018-05-12T20:36:58.624Z,13.03
2018-05-12T20:39:26.568Z,14.33
2018-05-12T20:41:54.044Z,28.73
2018-05-12T20:44:21.512Z,42.37
2018-05-12T20:46:49.001Z,24.08
2018-05-12T20:49:16.458Z,16.30
2018-05-12T20:51:44.182Z,15.23
2018-05-12T20:54:11.642Z,15.47
2018-05-12T20:56:39.103Z,13.27
2018-05-12T20:59:06.583Z,13.70
2018-05-12T21:01:34.051Z,11.83
2018-05-12T21:04:01.533Z,14.32
2018-05-12T21:06:29.008Z,13.70
2018-05-12T21:08:56.520Z,15.80
2018-05-12T21:11:23.987Z,14.00
2018-05-12T21:13:51.448Z,13.90
2018-05-12T21:16:19.085Z,15.00
2018-05-12T21:18:46.544Z,13.83
2018-05-12T21:21:14.028Z,13.55
2018-05-12T21:23:41.586Z,18.17
2018-05-12T21:26:09.069Z,16.70
2018-05-12T21:28:36.652Z,18.67
2018-05-12T21:31:04.129Z,14.53
2018-05-12T21:33:31.603Z,14.77
2018-05-12T21:35:59.065Z,14.80
2018-05-12T21:38:26.560Z,19.87
2018-05-12T21:40:54.024Z,15.67
2018-05-12T21:43:21.494Z,27.83
2018-05-12T21:45:48.973Z,18.53
2018-05-12T21:48:16.439Z,23.12
2018-05-12T21:50:44.144Z,18.63
2018-05-12T21:53:11.612Z,23.43
2018-05-12T21:55:39.075Z,18.03
2018-05-12T21:58:06.565Z,16.40
2018-05-12T22:00:34.032Z,17.40
2018-05-12T22:03:01.525Z,14.93
2018-05-12T22:05:28.978Z,17.65
2018-05-12T22:07:56.465Z,24.87
2018-05-12T22:10:23.946Z,20.13
2018-05-12T22:12:51.424Z,17.43
2018-05-12T22:15:18.926Z,16.70
2018-05-12T22:17:46.390Z,18.20
2018-05-12T22:20:13.863Z,16.50
2018-05-12T22:22:41.350Z,21.27
2018-05-12T22:25:08.820Z,25.27
2018-05-12T22:27:36.661Z,18.37
2018-05-12T22:30:04.148Z,24.33
2018-05-12T22:32:31.643Z,19.47
2018-05-12T22:34:59.118Z,24.80
2018-05-12T22:37:26.587Z,17.20
2018-05-12T22:39:54.091Z,21.00
2018-05-12T22:42:21.619Z,17.37
2018-05-12T22:44:49.100Z,19.33
2018-05-12T22:47:16.591Z,24.97
2018-05-12T22:49:44.075Z,19.20
2018-05-12T22:52:11.571Z,24.93
2018-05-12T22:54:39.047Z,20.47
2018-05-12T22:57:06.559Z,17.13
2018-05-12T22:59:34.035Z,21.10
2018-05-12T23:02:01.512Z,19.43
2018-05-12T23:04:28.991Z,26.10
2018-05-12T23:06:56.459Z,19.07
2018-05-12T23:09:23.946Z,19.43
2018-05-12T23:11:51.416Z,20.47
2018-05-12T23:14:18.891Z,20.77
2018-05-12T23:16:46.383Z,27.23
2018-05-12T23:19:13.860Z,19.83
2018-05-12T23:21:41.348Z,19.33
2018-05-12T23:24:08.830Z,23.90
2018-05-12T23:26:36.318Z,21.97
2018-05-12T23:29:03.787Z,24.63
2018-05-12T23:31:31.288Z,21.90
2018-05-12T23:33:58.760Z,22.43
2018-05-12T23:36:26.236Z,32.83
2018-05-12T23:38:53.716Z,24.27
2018-05-12T23:41:21.184Z,21.80
2018-05-12T23:43:48.691Z,25.33
2018-05-12T23:46:16.159Z,23.97
2018-05-12T23:48:43.660Z,27.80
2018-05-12T23:51:11.144Z,23.10
2018-05-12T23:53:38.617Z,25.10
2018-05-12T23:56:06.105Z,23.70
2018-05-12T23:58:33.584Z,43.53
